Time;durP1;ratioP1;P1;durP2;ratioP2;P2;SDS_P1;SDS_P2;PMS_P1;PMS_P2;Temp;Humidity;BMP_temperature;BMP_pressure;BME280_temperature;BME280_humidity;BME280_pressure;Samples;Min_cycle;Max_cycle;Signal;HPM_P1;HPM_P2
2021/12/11 00:01:53;;;;;;;10.03;8.97;;;;;;;9.26;55.43;93658.22;5064736;28;20421;-72
2021/12/11 00:04:34;;;;;;;12.53;8.20;;;;;;;9.17;55.36;93670.75;5064555;28;20395;-72
2021/12/11 00:07:06;;;;;;;10.37;8.67;;;;;;;8.88;57.13;93661.66;5064701;28;20413;-72
2021/12/11 00:09:36;;;;;;;8.33;5.73;;;;;;;8.79;57.54;93661.91;5064534;28;20699;-72
2021/12/11 00:12:13;;;;;;;5.90;4.50;;;;;;;8.17;59.81;93666.66;5064835;28;20452;-71
2021/12/11 00:14:45;;;;;;;11.60;8.13;;;;;;;8.57;58.11;93681.44;5064631;28;20392;-72
2021/12/11 00:17:20;;;;;;;10.00;7.10;;;;;;;8.49;58.36;93686.88;5064668;28;20417;-72
2021/12/11 00:19:46;;;;;;;10.13;7.50;;;;;;;8.69;57.46;93703.28;5064428;28;20444;-71
2021/12/11 00:22:19;;;;;;;10.03;8.00;;;;;;;8.33;58.75;93691.50;5064384;28;20417;-71
2021/12/11 00:24:44;;;;;;;8.57;6.17;;;;;;;8.59;58.70;93697.69;5064718;28;20170;-71
2021/12/11 00:27:14;;;;;;;8.67;7.73;;;;;;;8.62;57.93;93694.66;5064672;28;20425;-72
2021/12/11 00:29:41;;;;;;;9.43;8.23;;;;;;;8.30;59.01;93685.91;5063341;28;20175;-72
2021/12/11 00:32:09;;;;;;;6.77;6.17;;;;;;;8.25;60.09;93683.88;5064270;28;20455;-72
2021/12/11 00:34:38;;;;;;;6.97;5.90;;;;;;;8.39;59.62;93684.69;5064916;28;20477;-71
2021/12/11 00:37:07;;;;;;;8.27;5.20;;;;;;;7.88;60.48;93687.97;5064749;28;20409;-71
2021/12/11 00:39:42;;;;;;;11.73;9.03;;;;;;;8.14;60.43;93681.94;5064604;28;20401;-72
2021/12/11 00:42:10;;;;;;;7.93;6.80;;;;;;;8.19;59.23;93684.72;5064428;28;20491;-72
2021/12/11 00:44:42;;;;;;;7.93;7.20;;;;;;;8.32;58.87;93676.88;5064755;28;20939;-72
2021/12/11 00:47:10;;;;;;;9.90;7.20;;;;;;;8.23;59.97;93678.09;5064414;28;20431;-72
2021/12/11 00:49:46;;;;;;;12.70;7.70;;;;;;;8.43;58.86;93672.06;5064725;28;20987;-72
2021/12/11 00:52:11;;;;;;;9.70;7.53;;;;;;;8.58;58.83;93672.63;5064460;28;20483;-72
2021/12/11 00:54:42;;;;;;;8.73;7.83;;;;;;;8.20;59.48;93665.47;5064358;28;20405;-72
2021/12/11 00:57:13;;;;;;;8.47;6.60;;;;;;;7.54;61.52;93653.31;5064388;28;20179;-73
2021/12/11 00:59:38;;;;;;;7.00;6.30;;;;;;;8.08;60.71;93659.28;5064618;28;21009;-72
2021/12/11 01:02:04;;;;;;;7.50;6.53;;;;;;;8.10;59.58;93676.31;5064106;28;20439;-72
2021/12/11 01:04:41;;;;;;;4.47;4.10;;;;;;;7.72;61.59;93674.34;5062899;28;20171;-72
2021/12/11 01:07:20;;;;;;;7.20;5.60;;;;;;;7.67;61.90;93675.94;5064041;28;20448;-72
2021/12/11 01:09:51;;;;;;;4.80;3.80;;;;;;;7.78;60.35;93668.34;5064253;28;20392;-72
2021/12/11 01:12:39;;;;;;;5.80;5.20;;;;;;;8.21;60.11;93670.50;5064213;28;20558;-72
2021/12/11 01:15:24;;;;;;;5.20;4.70;;;;;;;8.15;59.23;93665.28;5063032;28;20409;-70
2021/12/11 01:18:10;;;;;;;5.97;5.40;;;;;;;8.20;59.88;93670.69;5064129;28;20460;-72
2021/12/11 01:22:10;;;;;;;6.47;5.10;;;;;;;8.27;59.43;93666.28;5064420;28;20424;-71
2021/12/11 01:24:14;;;;;;;7.70;4.47;;;;;;;8.54;57.99;93655.78;5067225;28;20421;-71
2021/12/11 01:26:48;;;;;;;4.50;3.83;;;;;;;8.70;57.18;93657.91;5066252;28;20428;-72
2021/12/11 01:29:15;;;;;;;6.57;4.33;;;;;;;8.49;58.34;93669.44;5066385;28;20408;-72
2021/12/11 01:31:40;;;;;;;8.00;4.90;;;;;;;8.53;58.03;93660.19;5067472;28;20479;-72
2021/12/11 01:34:06;;;;;;;6.20;4.20;;;;;;;8.56;57.87;93653.78;5067346;28;20472;-71
2021/12/11 01:36:33;;;;;;;8.00;3.90;;;;;;;8.70;57.20;93644.88;5066289;28;20166;-72
2021/12/11 01:39:03;;;;;;;7.10;4.80;;;;;;;9.07;56.62;93650.34;5067279;28;20282;-71
2021/12/11 01:41:29;;;;;;;3.87;3.57;;;;;;;8.48;57.42;93647.00;5067154;28;20389;-72
2021/12/11 01:43:58;;;;;;;3.93;3.63;;;;;;;8.59;56.89;93637.69;5067222;28;20907;-72
2021/12/11 01:46:26;;;;;;;5.40;4.20;;;;;;;8.89;56.02;93637.19;5065912;28;20508;-72
2021/12/11 01:48:58;;;;;;;4.40;3.80;;;;;;;8.58;57.45;93633.50;5067230;28;20425;-72
2021/12/11 01:51:41;;;;;;;4.33;3.77;;;;;;;8.49;57.41;93639.97;5067115;28;20397;-72
2021/12/11 01:54:16;;;;;;;6.67;4.47;;;;;;;8.62;58.11;93647.72;5067021;28;20468;-72
2021/12/11 01:56:46;;;;;;;6.37;4.70;;;;;;;8.70;57.51;93646.69;5065598;28;20578;-72
2021/12/11 01:59:20;;;;;;;8.27;5.00;;;;;;;8.62;57.83;93644.34;5067101;28;20829;-72
2021/12/11 02:01:55;;;;;;;6.77;5.10;;;;;;;8.63;58.20;93638.09;5066943;28;20435;-74
2021/12/11 02:04:24;;;;;;;6.20;5.20;;;;;;;8.66;57.83;93638.47;5067076;28;20393;-73
2021/12/11 02:06:53;;;;;;;5.50;5.00;;;;;;;8.51;58.63;93625.69;5066958;28;20440;-72
2021/12/11 02:09:26;;;;;;;5.87;5.13;;;;;;;8.49;59.04;93624.31;5066992;28;20429;-72
2021/12/11 02:12:17;;;;;;;5.17;4.77;;;;;;;7.77;60.43;93629.47;5066803;28;20424;-72
2021/12/11 02:14:50;;;;;;;5.13;4.57;;;;;;;7.84;59.70;93624.25;5066783;28;20416;-71
2021/12/11 02:17:21;;;;;;;6.33;5.40;;;;;;;8.04;60.39;93637.25;5067696;28;20409;-72
2021/12/11 02:19:49;;;;;;;2.27;2.07;;;;;;;7.48;60.75;93638.50;5065661;28;20463;-72
2021/12/11 02:22:20;;;;;;;7.43;4.53;;;;;;;7.40;61.48;93642.09;5067161;28;20474;-71
2021/12/11 02:24:50;;;;;;;7.40;4.70;;;;;;;7.18;62.11;93634.47;5066968;28;20407;-71
2021/12/11 02:27:21;;;;;;;6.03;5.27;;;;;;;7.50;61.99;93629.47;5067068;28;20420;-72
2021/12/11 02:29:59;;;;;;;5.23;4.73;;;;;;;7.57;61.18;93630.28;5066978;28;20885;-72
2021/12/11 02:32:39;;;;;;;7.30;5.53;;;;;;;7.76;60.58;93627.88;5066008;28;20449;-71
2021/12/11 02:35:19;;;;;;;6.63;5.70;;;;;;;7.68;61.37;93609.84;5065587;28;20413;-71
2021/12/11 02:37:49;;;;;;;5.90;5.27;;;;;;;7.88;60.65;93620.25;5066947;28;20421;-72
2021/12/11 02:40:31;;;;;;;8.83;5.20;;;;;;;7.55;61.65;93627.09;5067072;28;20449;-72
2021/12/11 02:43:19;;;;;;;5.40;4.90;;;;;;;7.94;60.45;93617.63;5067175;28;20504;-73
2021/12/11 02:46:02;;;;;;;5.73;5.20;;;;;;;8.01;59.90;93609.81;5066078;28;20421;-71
2021/12/11 02:48:51;;;;;;;6.23;5.20;;;;;;;7.94;60.44;93604.59;5066711;28;20417;-72
2021/12/11 02:51:40;;;;;;;5.63;5.13;;;;;;;7.95;60.70;93608.81;5066314;28;20401;-72
2021/12/11 02:54:12;;;;;;;6.10;5.50;;;;;;;7.93;60.41;93605.63;5066546;28;20477;-72
2021/12/11 02:56:43;;;;;;;5.70;5.13;;;;;;;7.70;61.24;93605.22;5066919;28;20405;-71
2021/12/11 02:59:15;;;;;;;4.93;4.43;;;;;;;7.79;60.99;93585.78;5066733;28;20385;-72
2021/12/11 03:01:51;;;;;;;5.30;4.90;;;;;;;8.02;60.58;93601.78;5065143;28;20436;-72
2021/12/11 03:04:34;;;;;;;5.80;5.13;;;;;;;7.80;61.42;93593.41;5066504;28;20978;-71
2021/12/11 03:07:38;;;;;;;5.63;5.07;;;;;;;7.77;61.29;93587.81;5065174;28;20456;-72
2021/12/11 03:10:12;;;;;;;7.90;5.70;;;;;;;8.06;60.52;93593.53;5064681;28;20450;-71
2021/12/11 03:12:38;;;;;;;6.70;4.50;;;;;;;8.06;60.56;93590.94;5066249;28;20448;-72
2021/12/11 03:15:07;;;;;;;3.90;3.63;;;;;;;7.99;60.44;93590.97;5066559;28;20406;-72
2021/12/11 03:17:33;;;;;;;3.77;3.47;;;;;;;7.94;60.73;93582.97;5064792;28;20417;-71
2021/12/11 03:19:58;;;;;;;3.00;2.80;;;;;;;8.17;60.43;93579.88;5064637;28;21114;-72
2021/12/11 03:22:31;;;;;;;3.73;3.43;;;;;;;8.12;60.43;93585.72;5065963;28;20166;-72
2021/12/11 03:25:03;;;;;;;3.90;3.60;;;;;;;8.20;59.90;93582.88;5065896;28;20167;-72
2021/12/11 03:27:28;;;;;;;3.20;3.00;;;;;;;8.38;60.45;93582.22;5065823;28;20480;-72
2021/12/11 03:29:54;;;;;;;4.27;3.73;;;;;;;7.99;61.44;93586.56;5065350;28;20417;-72
2021/12/11 03:32:21;;;;;;;7.20;5.60;;;;;;;8.08;61.31;93578.50;5063911;28;20245;-71
2021/12/11 03:34:48;;;;;;;8.13;5.97;;;;;;;7.91;60.97;93568.56;5065643;28;20435;-72
2021/12/11 03:37:16;;;;;;;7.13;6.40;;;;;;;8.17;60.31;93565.03;5066184;28;20431;-72
2021/12/11 03:39:47;;;;;;;7.80;5.70;;;;;;;8.37;59.86;93556.38;5066354;28;20405;-72
2021/12/11 03:42:21;;;;;;;5.50;5.00;;;;;;;8.38;60.29;93563.97;5065690;28;20503;-72
2021/12/11 03:44:47;;;;;;;6.50;5.80;;;;;;;8.23;60.20;93560.03;5064327;28;20454;-72
2021/12/11 03:47:27;;;;;;;6.50;5.70;;;;;;;8.46;58.87;93564.75;5066275;28;20417;-72
2021/12/11 03:49:53;;;;;;;8.77;7.37;;;;;;;7.54;62.05;93570.81;5066588;28;20408;-73
2021/12/11 03:52:19;;;;;;;7.90;7.27;;;;;;;7.91;61.83;93572.94;5065152;28;20492;-72
2021/12/11 03:54:47;;;;;;;8.10;7.27;;;;;;;8.02;61.12;93570.53;5066115;28;20938;-72
2021/12/11 03:57:16;;;;;;;8.83;7.93;;;;;;;8.17;60.66;93566.84;5066940;28;20421;-72
2021/12/11 03:59:48;;;;;;;9.17;8.10;;;;;;;8.34;61.49;93567.19;5066569;28;20406;-72
2021/12/11 04:02:16;;;;;;;8.73;7.00;;;;;;;8.17;60.75;93577.28;5066231;28;20413;-72
2021/12/11 04:04:48;;;;;;;8.30;6.87;;;;;;;8.07;60.85;93587.34;5065867;28;20401;-71
2021/12/11 04:07:18;;;;;;;7.73;5.90;;;;;;;8.18;61.18;93589.31;5065454;28;20425;-73
2021/12/11 04:09:45;;;;;;;7.80;6.53;;;;;;;7.96;61.62;93592.16;5065799;28;20385;-71
2021/12/11 04:12:13;;;;;;;7.50;6.20;;;;;;;7.75;62.00;93590.59;5065166;28;20820;-72
2021/12/11 04:14:45;;;;;;;7.40;6.70;;;;;;;7.76;63.16;93583.63;5065160;28;20412;-72
2021/12/11 04:17:13;;;;;;;6.87;5.27;;;;;;;7.70;62.36;93587.84;5065278;28;20420;-71
2021/12/11 04:19:40;;;;;;;6.40;5.90;;;;;;;8.18;61.20;93576.28;5064765;28;20464;-72
2021/12/11 04:22:07;;;;;;;5.87;4.90;;;;;;;8.74;59.22;93573.03;5064424;28;20890;-72
2021/12/11 04:24:35;;;;;;;6.40;5.13;;;;;;;8.55;60.64;93574.75;5064635;28;20409;-72
2021/12/11 04:27:04;;;;;;;5.57;5.00;;;;;;;8.66;59.80;93581.09;5063091;28;20424;-71
2021/12/11 04:29:30;;;;;;;6.20;5.60;;;;;;;8.56;60.18;93576.34;5064537;28;20545;-72
2021/12/11 04:32:00;;;;;;;5.43;5.10;;;;;;;8.19;62.21;93575.25;5062978;28;20962;-72
2021/12/11 04:34:26;;;;;;;3.13;2.70;;;;;;;8.02;62.17;93565.31;5064919;28;20417;-70
2021/12/11 04:36:58;;;;;;;4.00;3.60;;;;;;;8.50;60.96;93555.50;5064395;28;20427;-71
2021/12/11 04:39:25;;;;;;;3.73;3.43;;;;;;;8.67;60.10;93550.59;5064405;28;20238;-72
2021/12/11 04:42:00;;;;;;;3.60;3.27;;;;;;;8.89;60.69;93551.09;5064300;28;20447;-71
2021/12/11 04:44:35;;;;;;;3.00;2.80;;;;;;;9.04;59.67;93551.59;5064554;28;20392;-72
2021/12/11 04:47:05;;;;;;;2.90;2.70;;;;;;;8.71;60.33;93542.19;5063010;28;20425;-71
2021/12/11 04:49:39;;;;;;;3.17;2.97;;;;;;;9.07;59.91;93551.16;5064290;28;20993;-72
2021/12/11 04:52:18;;;;;;;2.93;2.67;;;;;;;8.79;60.99;93548.94;5064295;28;20480;-71
2021/12/11 04:55:09;;;;;;;2.97;2.77;;;;;;;8.78;61.68;93558.59;5064238;28;20386;-72
2021/12/11 05:00:10;;;;;;;2.80;2.60;;;;;;;8.88;61.74;93557.31;5068362;28;20424;-72
2021/12/11 05:10:37;;;;;;;2.77;2.50;;;;;;;8.44;64.60;93558.97;5068212;28;20440;-71
2021/12/11 05:13:04;;;;;;;2.80;2.60;;;;;;;8.43;64.51;93555.56;5068103;28;20205;-71
2021/12/11 05:15:36;;;;;;;3.30;2.80;;;;;;;8.55;64.54;93547.88;5067977;28;20409;-72
2021/12/11 05:18:06;;;;;;;2.60;2.37;;;;;;;8.34;64.61;93541.91;5068262;28;20412;-72
2021/12/11 05:20:33;;;;;;;2.50;2.30;;;;;;;8.44;64.22;93546.72;5068003;28;20443;-71
2021/12/11 05:22:59;;;;;;;2.90;2.37;;;;;;;8.30;64.98;93545.97;5066539;28;20511;-71
2021/12/11 05:25:26;;;;;;;2.77;2.57;;;;;;;8.47;65.35;93551.53;5067656;28;20474;-72
2021/12/11 05:27:52;;;;;;;3.20;2.50;;;;;;;8.78;64.22;93552.56;5067823;28;20190;-72
2021/12/11 05:30:22;;;;;;;3.50;3.20;;;;;;;8.76;63.42;93555.38;5067870;28;20935;-72
2021/12/11 05:32:47;;;;;;;3.17;2.87;;;;;;;8.44;65.27;93558.97;5066093;28;20464;-72
2021/12/11 05:35:15;;;;;;;3.10;2.80;;;;;;;8.58;64.66;93548.25;5065845;28;20471;-73
2021/12/11 05:37:41;;;;;;;4.53;4.03;;;;;;;8.46;65.10;93556.94;5067358;28;20181;-72
2021/12/11 05:40:08;;;;;;;4.00;3.40;;;;;;;8.49;65.14;93553.94;5067136;28;20439;-72
2021/12/11 05:42:34;;;;;;;5.17;4.27;;;;;;;8.75;63.64;93553.78;5067316;28;20409;-71
2021/12/11 05:45:00;;;;;;;3.77;3.47;;;;;;;9.03;62.71;93557.81;5067297;28;20958;-72
2021/12/11 05:47:26;;;;;;;4.67;4.17;;;;;;;8.68;64.30;93557.44;5065633;28;20214;-71
2021/12/11 05:49:51;;;;;;;4.23;3.83;;;;;;;8.47;65.05;93567.16;5067220;28;20500;-71
2021/12/11 05:52:19;;;;;;;4.60;3.70;;;;;;;8.66;64.53;93556.84;5067180;28;20197;-71
2021/12/11 05:54:46;;;;;;;7.10;6.50;;;;;;;8.39;64.79;93565.56;5067574;28;20230;-72
2021/12/11 05:57:15;;;;;;;6.67;6.03;;;;;;;8.35;66.06;93571.41;5067187;28;20420;-71
2021/12/11 05:59:43;;;;;;;8.10;7.30;;;;;;;8.30;65.62;93579.03;5067190;28;20440;-71
2021/12/11 06:02:20;;;;;;;9.33;8.33;;;;;;;8.43;65.32;93571.19;5066866;28;20753;-71
2021/12/11 06:04:48;;;;;;;9.97;8.47;;;;;;;8.59;64.53;93581.16;5067017;28;20397;-72
2021/12/11 06:07:16;;;;;;;16.00;8.20;;;;;;;8.51;64.39;93580.59;5065397;28;20520;-72
2021/12/11 06:09:47;;;;;;;9.87;8.87;;;;;;;8.14;65.36;93578.50;5066860;28;20783;-71
2021/12/11 06:12:16;;;;;;;8.67;7.83;;;;;;;8.04;65.65;93577.31;5066864;28;20562;-72
2021/12/11 06:14:44;;;;;;;10.57;8.90;;;;;;;8.35;64.71;93569.59;5066665;28;20416;-71
2021/12/11 06:17:11;;;;;;;10.87;9.10;;;;;;;8.59;64.60;93577.72;5066953;28;20559;-72
2021/12/11 06:19:37;;;;;;;12.63;9.57;;;;;;;8.70;63.33;93586.72;5066372;28;20488;-73
2021/12/11 06:22:04;;;;;;;12.60;10.13;;;;;;;8.93;63.64;93588.78;5066678;28;20456;-71
2021/12/11 06:24:30;;;;;;;11.23;9.97;;;;;;;8.18;65.45;93589.31;5066891;28;20467;-72
2021/12/11 06:26:57;;;;;;;11.63;10.43;;;;;;;8.35;64.91;93585.25;5066736;28;20432;-72
2021/12/11 06:29:22;;;;;;;10.10;8.80;;;;;;;8.28;65.52;93586.28;5066669;28;20206;-72
2021/12/11 06:31:49;;;;;;;11.83;10.20;;;;;;;8.10;64.98;93586.91;5066852;28;20428;-72
2021/12/11 06:34:14;;;;;;;11.90;10.60;;;;;;;8.38;64.42;93582.22;5066706;28;20194;-71
2021/12/11 06:36:42;;;;;;;12.20;10.97;;;;;;;8.83;63.58;93586.63;5066729;28;20512;-71
2021/12/11 06:39:11;;;;;;;11.77;10.67;;;;;;;8.88;63.89;93593.81;5066613;28;20622;-72
2021/12/11 06:41:40;;;;;;;10.63;9.27;;;;;;;8.93;63.01;93580.97;5065147;28;20433;-72
2021/12/11 06:44:08;;;;;;;11.40;10.20;;;;;;;8.84;63.27;93577.00;5066551;28;20405;-72
2021/12/11 06:46:35;;;;;;;12.10;10.60;;;;;;;8.97;62.99;93585.56;5065448;28;20420;-72
2021/12/11 06:49:01;;;;;;;12.43;10.20;;;;;;;9.19;62.70;93578.16;5065122;28;20424;-72
2021/12/11 06:51:28;;;;;;;11.00;9.50;;;;;;;9.40;62.63;93584.03;5066291;28;20942;-72
2021/12/11 06:53:59;;;;;;;10.90;9.63;;;;;;;9.25;62.23;93583.56;5066222;28;20447;-71
2021/12/11 06:56:26;;;;;;;10.00;9.10;;;;;;;9.08;62.27;93573.63;5066233;28;20402;-71
2021/12/11 06:58:52;;;;;;;10.50;9.03;;;;;;;9.09;63.03;93575.25;5066086;28;20400;-72
2021/12/11 07:01:20;;;;;;;10.00;8.13;;;;;;;9.21;62.48;93582.38;5066235;28;20417;-72
2021/12/11 07:03:45;;;;;;;9.10;8.17;;;;;;;9.28;61.66;93572.69;5066146;28;20413;-72
2021/12/11 07:06:12;;;;;;;9.60;8.70;;;;;;;9.39;61.43;93572.00;5065915;28;20420;-72
2021/12/11 07:08:39;;;;;;;9.30;8.10;;;;;;;9.31;61.77;93565.22;5066176;28;20177;-73
2021/12/11 07:11:06;;;;;;;10.97;9.73;;;;;;;9.48;61.90;93557.66;5066020;28;20908;-72
2021/12/11 07:13:32;;;;;;;12.83;9.77;;;;;;;9.58;61.02;93563.22;5066152;28;20467;-72
2021/12/11 07:15:58;;;;;;;11.00;9.80;;;;;;;9.60;61.47;93559.56;5064880;28;20436;-72
2021/12/11 07:18:25;;;;;;;11.90;9.40;;;;;;;9.63;61.11;93554.72;5065263;28;20257;-72
2021/12/11 07:20:51;;;;;;;13.50;10.60;;;;;;;9.72;61.14;93539.56;5066061;28;20429;-72
2021/12/11 07:23:17;;;;;;;9.47;8.67;;;;;;;9.75;60.57;93546.97;5065580;28;20420;-72
2021/12/11 07:26:16;;;;;;;10.27;9.27;;;;;;;9.65;60.53;93546.66;5065765;28;20170;-72
2021/12/11 07:28:49;;;;;;;11.37;9.27;;;;;;;9.77;60.79;93543.13;5053567;28;20819;-72
2021/12/11 07:31:15;;;;;;;11.43;9.50;;;;;;;9.99;60.17;93547.13;5066170;28;20389;-72
2021/12/11 07:33:41;;;;;;;11.23;9.50;;;;;;;10.06;59.24;93553.88;5066025;28;20469;-72
2021/12/11 07:36:06;;;;;;;9.30;8.50;;;;;;;10.20;59.37;93543.28;5065499;28;20436;-72
2021/12/11 07:38:32;;;;;;;10.70;9.60;;;;;;;10.27;59.19;93536.94;5065992;28;20259;-72
2021/12/11 07:41:02;;;;;;;10.63;9.73;;;;;;;10.34;58.72;93535.09;5065529;28;20185;-73
2021/12/11 07:43:28;;;;;;;13.03;10.03;;;;;;;10.53;58.21;93543.69;5065745;28;20247;-72
2021/12/11 07:45:55;;;;;;;10.13;9.10;;;;;;;10.47;58.21;93538.53;5065765;28;20418;-72
2021/12/11 07:48:21;;;;;;;10.67;9.67;;;;;;;10.55;57.98;93544.28;5065785;28;20428;-73
2021/12/11 07:50:47;;;;;;;13.50;12.20;;;;;;;10.42;58.11;93536.59;5064164;28;20939;-73
2021/12/11 07:53:14;;;;;;;14.13;12.63;;;;;;;10.55;58.48;93540.88;5065706;28;20206;-72
2021/12/11 07:55:41;;;;;;;14.10;12.60;;;;;;;10.63;57.98;93531.91;5065389;28;20417;-72
2021/12/11 07:58:07;;;;;;;14.50;13.03;;;;;;;10.51;59.01;93534.50;5065110;28;20433;-73
2021/12/11 08:00:37;;;;;;;15.53;13.97;;;;;;;10.43;59.38;93537.38;5065137;28;20409;-72
2021/12/11 08:03:03;;;;;;;14.67;12.67;;;;;;;10.13;59.93;93532.88;5065429;28;20766;-71
2021/12/11 08:05:30;;;;;;;23.40;13.77;;;;;;;10.38;59.38;93521.56;5065311;28;20409;-72
2021/12/11 08:08:00;;;;;;;17.67;15.60;;;;;;;9.93;60.73;93531.31;5065341;28;20425;-72
2021/12/11 08:10:26;;;;;;;16.67;14.10;;;;;;;10.04;61.32;93526.38;5065264;28;20396;-72
2021/12/11 08:12:52;;;;;;;19.13;14.67;;;;;;;10.06;61.11;93532.19;5065271;28;20465;-73
2021/12/11 08:15:18;;;;;;;15.70;14.10;;;;;;;10.33;59.99;93540.53;5065124;28;20439;-72
2021/12/11 08:17:50;;;;;;;15.60;14.00;;;;;;;10.39;61.07;93531.00;5065090;28;20534;-72
2021/12/11 08:20:15;;;;;;;13.83;12.53;;;;;;;10.83;59.15;93529.81;5063585;28;20453;-72
2021/12/11 08:22:41;;;;;;;16.83;13.07;;;;;;;11.01;59.84;93536.00;5065115;28;20427;-72
2021/12/11 08:25:08;;;;;;;15.00;13.00;;;;;;;11.35;58.48;93538.91;5064634;28;20171;-72
2021/12/11 08:27:34;;;;;;;15.60;12.50;;;;;;;10.34;61.22;93531.69;5064766;28;20175;-72
2021/12/11 08:29:59;;;;;;;17.63;13.60;;;;;;;10.87;60.10;93530.16;5064775;28;20504;-72
2021/12/11 08:32:25;;;;;;;15.17;11.60;;;;;;;11.05;59.32;93530.09;5068431;28;21022;-72
2021/12/11 08:34:52;;;;;;;13.73;8.90;;;;;;;10.78;58.88;93523.66;5068839;28;20194;-72
2021/12/11 08:37:20;;;;;;;12.27;10.97;;;;;;;11.00;58.51;93526.53;5069189;28;20412;-72
2021/12/11 08:39:46;;;;;;;12.37;10.93;;;;;;;11.47;57.67;93526.63;5067588;28;20421;-73
2021/12/11 08:42:17;;;;;;;17.63;13.10;;;;;;;11.85;56.42;93526.13;5067441;28;20432;-73
2021/12/11 08:44:50;;;;;;;20.83;18.07;;;;;;;11.05;58.33;93522.22;5068751;28;20314;-71
2021/12/11 08:47:17;;;;;;;30.20;19.70;;;;;;;10.99;58.34;93515.28;5068744;28;20435;-72
2021/12/11 08:49:43;;;;;;;30.40;22.53;;;;;;;10.63;59.06;93521.44;5068723;28;20411;-72
2021/12/11 08:52:17;;;;;;;32.07;27.40;;;;;;;10.25;59.36;93517.28;5066767;28;20520;-71
2021/12/11 08:54:43;;;;;;;34.80;31.10;;;;;;;10.38;59.69;93516.31;5068528;28;20169;-73
2021/12/11 08:57:11;;;;;;;37.00;30.07;;;;;;;11.04;57.88;93511.97;5068614;28;20472;-72
2021/12/11 08:59:40;;;;;;;33.80;30.03;;;;;;;10.77;58.91;93507.16;5068404;28;20408;-72
2021/12/11 09:02:23;;;;;;;32.53;29.03;;;;;;;11.21;57.09;93507.72;5068768;28;20423;-72
2021/12/11 09:04:54;;;;;;;31.40;25.53;;;;;;;10.64;59.47;93497.69;5068593;28;20393;-71
2021/12/11 09:07:28;;;;;;;28.97;25.00;;;;;;;11.36;57.36;93496.75;5068832;28;20428;-72
2021/12/11 09:10:29;;;;;;;32.97;25.20;;;;;;;11.59;56.41;93495.16;5068878;28;20393;-72
2021/12/11 09:13:07;;;;;;;29.13;24.80;;;;;;;11.31;56.97;93486.97;5063886;28;20488;-72
2021/12/11 09:15:41;;;;;;;27.43;23.40;;;;;;;11.63;55.39;93472.72;5067395;28;20412;-72
2021/12/11 09:18:12;;;;;;;26.83;23.03;;;;;;;11.34;56.59;93475.25;5067099;28;20429;-72
2021/12/11 09:20:43;;;;;;;25.33;22.30;;;;;;;11.36;56.68;93473.19;5068358;28;20394;-72
2021/12/11 09:23:17;;;;;;;32.13;24.23;;;;;;;11.05;57.67;93462.03;5068757;28;20417;-72
2021/12/11 09:25:52;;;;;;;31.20;23.27;;;;;;;11.20;57.22;93473.88;5066960;28;20436;-71
2021/12/11 09:28:39;;;;;;;30.50;23.90;;;;;;;11.25;57.64;93471.38;5068616;28;20424;-72
2021/12/11 09:31:15;;;;;;;29.60;23.70;;;;;;;11.47;56.56;93459.28;5068393;28;20398;-73
2021/12/11 09:33:54;;;;;;;32.17;25.50;;;;;;;11.49;56.77;93459.84;5066932;28;20464;-73
2021/12/11 09:36:30;;;;;;;29.63;23.37;;;;;;;11.62;56.61;93458.81;5068169;28;20416;-72
2021/12/11 09:39:10;;;;;;;24.27;21.67;;;;;;;11.91;55.25;93459.72;5066951;28;20416;-71
2021/12/11 09:41:36;;;;;;;23.43;20.60;;;;;;;11.79;55.16;93461.53;5067006;28;20446;-72
2021/12/11 09:44:24;;;;;;;25.43;22.50;;;;;;;11.88;55.84;93447.03;5067532;28;20405;-72
2021/12/11 09:46:57;;;;;;;27.87;23.70;;;;;;;11.66;55.95;93449.47;5067732;28;20205;-71
2021/12/11 09:49:27;;;;;;;29.57;21.87;;;;;;;12.02;55.26;93449.44;5067602;28;20822;-72
2021/12/11 09:52:02;;;;;;;24.30;21.10;;;;;;;12.24;54.62;93452.22;5067631;28;20409;-72
2021/12/11 09:54:31;;;;;;;23.13;20.77;;;;;;;12.22;54.25;93439.34;5067555;28;20403;-73
2021/12/11 09:57:05;;;;;;;22.97;20.30;;;;;;;12.24;54.10;93434.66;5067348;28;20501;-72
2021/12/11 09:59:35;;;;;;;23.93;20.90;;;;;;;12.36;53.68;93431.19;5067344;28;20397;-71
2021/12/11 10:02:07;;;;;;;25.20;21.10;;;;;;;12.19;54.29;93434.56;5067558;28;20524;-72
2021/12/11 10:04:52;;;;;;;24.70;22.10;;;;;;;12.33;53.76;93431.66;5067458;28;20404;-71
2021/12/11 10:07:28;;;;;;;24.47;20.03;;;;;;;12.72;52.39;93431.81;5067317;28;20455;-72
2021/12/11 10:10:08;;;;;;;22.40;20.10;;;;;;;11.97;55.36;93420.50;5067001;28;20427;-72
2021/12/11 10:12:37;;;;;;;21.80;18.20;;;;;;;12.24;54.21;93411.06;5065600;28;20549;-72
2021/12/11 10:15:03;;;;;;;20.50;18.40;;;;;;;12.30;54.94;93415.34;5067160;28;20408;-73
2021/12/11 10:17:39;;;;;;;16.20;14.60;;;;;;;12.21;54.60;93419.38;5066962;28;20492;-72
2021/12/11 10:20:27;;;;;;;19.97;16.50;;;;;;;12.26;54.44;93419.47;5066525;28;20218;-73
2021/12/11 10:22:56;;;;;;;15.83;14.23;;;;;;;12.48;53.81;93421.41;5066620;28;20558;-72
2021/12/11 10:25:30;;;;;;;5.13;4.63;;;;;;;12.07;53.30;93413.63;5066564;28;20795;-72
2021/12/11 10:28:02;;;;;;;4.63;4.13;;;;;;;12.44;52.34;93409.81;5066719;28;20443;-73
2021/12/11 10:30:30;;;;;;;4.53;3.90;;;;;;;12.31;51.81;93405.66;5066601;28;20402;-72
2021/12/11 10:32:56;;;;;;;3.90;3.60;;;;;;;12.34;52.58;93414.88;5066652;28;20482;-72
2021/12/11 10:35:34;;;;;;;4.47;3.30;;;;;;;12.37;51.80;93406.53;5066701;28;20412;-72
2021/12/11 10:38:02;;;;;;;3.57;3.20;;;;;;;12.52;51.58;93408.63;5066605;28;20455;-72
2021/12/11 10:40:45;;;;;;;5.00;3.37;;;;;;;12.43;51.52;93398.53;5066386;28;20413;-72
2021/12/11 10:43:25;;;;;;;2.17;2.07;;;;;;;12.40;52.31;93398.19;5066523;28;20488;-72
2021/12/11 10:45:52;;;;;;;3.03;2.63;;;;;;;12.31;52.33;93384.66;5066675;28;20532;-72
2021/12/11 10:48:23;;;;;;;3.80;3.50;;;;;;;12.24;52.50;93384.81;5066634;28;20463;-73
2021/12/11 10:50:55;;;;;;;3.60;3.40;;;;;;;12.38;52.92;93384.53;5066424;28;20393;-73
2021/12/11 10:53:24;;;;;;;4.47;4.07;;;;;;;12.66;52.51;93373.97;5065591;28;20491;-73
2021/12/11 10:55:52;;;;;;;3.77;3.47;;;;;;;12.65;52.48;93375.03;5066215;28;20416;-72
2021/12/11 10:58:23;;;;;;;4.27;3.47;;;;;;;12.80;51.57;93377.06;5066491;28;20421;-72
2021/12/11 11:00:51;;;;;;;5.00;4.30;;;;;;;12.81;52.25;93365.53;5066176;28;20393;-72
2021/12/11 11:03:18;;;;;;;3.00;2.80;;;;;;;12.95;50.82;93370.47;5065924;28;20447;-72
2021/12/11 11:05:44;;;;;;;3.20;2.90;;;;;;;12.53;52.29;93363.78;5066566;28;20405;-73
2021/12/11 11:08:10;;;;;;;4.70;3.50;;;;;;;12.08;53.57;93369.84;5064912;28;20433;-72
2021/12/11 11:10:44;;;;;;;5.77;3.90;;;;;;;12.91;51.90;93354.38;5066202;28;20416;-72
2021/12/11 11:13:14;;;;;;;3.67;3.37;;;;;;;12.26;53.36;93356.53;5066410;28;20490;-72
2021/12/11 11:15:42;;;;;;;3.57;3.27;;;;;;;12.43;52.70;93350.50;5066393;28;20402;-73
2021/12/11 11:18:09;;;;;;;4.07;3.10;;;;;;;12.40;52.90;93350.97;5066497;28;20427;-72
2021/12/11 11:20:40;;;;;;;3.40;3.10;;;;;;;12.29;53.05;93340.31;5064689;28;20473;-73
2021/12/11 11:23:06;;;;;;;6.27;3.87;;;;;;;12.12;54.09;93347.34;5064718;28;20421;-72
2021/12/11 11:25:38;;;;;;;3.67;3.40;;;;;;;12.30;52.68;93348.97;5065749;28;20444;-73
2021/12/11 11:28:08;;;;;;;4.27;2.63;;;;;;;12.63;52.86;93336.91;5065942;28;20429;-73
2021/12/11 11:30:40;;;;;;;3.57;3.30;;;;;;;12.81;51.94;93331.41;5065864;28;20397;-73
2021/12/11 11:33:08;;;;;;;4.03;3.60;;;;;;;12.68;52.43;93335.16;5065971;28;20461;-74
2021/12/11 11:35:38;;;;;;;2.53;2.33;;;;;;;12.77;52.51;93329.53;5066050;28;20429;-72
2021/12/11 11:38:05;;;;;;;2.90;2.70;;;;;;;12.52;53.13;93322.03;5064586;28;20430;-72
2021/12/11 11:40:36;;;;;;;3.50;3.20;;;;;;;12.39;53.24;93328.41;5065830;28;20478;-72
2021/12/11 11:43:04;;;;;;;7.17;3.20;;;;;;;12.68;52.90;93308.13;5065852;28;20432;-73
2021/12/11 11:45:31;;;;;;;3.83;3.53;;;;;;;12.43;53.99;93316.41;5064203;28;20527;-73
2021/12/11 11:47:57;;;;;;;3.70;3.40;;;;;;;12.72;53.56;93318.94;5063819;28;20417;-73
2021/12/11 11:50:26;;;;;;;3.30;2.97;;;;;;;12.93;53.15;93323.44;5065191;28;20444;-73
2021/12/11 11:52:52;;;;;;;3.23;2.90;;;;;;;12.61;53.39;93321.41;5064763;28;20560;-72
2021/12/11 11:55:23;;;;;;;3.50;3.07;;;;;;;12.97;52.41;93319.28;5065171;28;20472;-73
2021/12/11 11:57:51;;;;;;;3.00;2.70;;;;;;;12.80;52.92;93318.53;5066215;28;20445;-73
2021/12/11 12:00:41;;;;;;;4.83;2.90;;;;;;;12.56;54.25;93313.47;5067020;28;20401;-71
2021/12/11 12:03:08;;;;;;;3.13;2.50;;;;;;;12.43;54.43;93308.53;5065962;28;20417;-73